createdAt,value
2022-12-24T00:00:26.769Z,11.73
2022-12-24T00:05:49.778Z,14.80
2022-12-24T00:10:54.101Z,13.13
2022-12-24T00:15:57.097Z,12.27
2022-12-24T00:21:00.154Z,13.17
2022-12-24T00:26:03.322Z,12.83
2022-12-24T00:31:17.783Z,10.13
2022-12-24T00:36:21.712Z,12.10
2022-12-24T00:41:25.492Z,10.53
2022-12-24T00:46:30.850Z,10.77
2022-12-24T00:51:35.149Z,11.37
2022-12-24T00:56:38.271Z,28.10
2022-12-24T01:01:41.686Z,18.47
2022-12-24T01:06:45.324Z,11.20
2022-12-24T01:11:48.624Z,30.77
2022-12-24T01:16:52.084Z,13.80
2022-12-24T01:21:55.506Z,22.77
2022-12-24T01:26:58.809Z,68.77
2022-12-24T01:32:01.905Z,25.73
2022-12-24T01:37:05.185Z,11.37
2022-12-24T01:42:39.233Z,10.27
2022-12-24T01:47:42.151Z,9.00
2022-12-24T01:52:45.431Z,11.47
2022-12-24T01:57:55.597Z,9.70
2022-12-24T02:03:01.766Z,10.57
2022-12-24T02:08:06.241Z,9.67
2022-12-24T02:13:09.661Z,14.87
2022-12-24T02:18:21.788Z,17.03
2022-12-24T02:23:33.967Z,10.60
2022-12-24T02:29:04.419Z,11.90
2022-12-24T02:34:13.460Z,12.87
2022-12-24T02:39:22.692Z,9.53
2022-12-24T02:44:28.129Z,55.63
2022-12-24T02:49:31.547Z,29.07
2022-12-24T02:54:34.773Z,33.00
2022-12-24T02:59:58.778Z,13.03
2022-12-24T03:05:11.182Z,10.67
2022-12-24T03:10:33.063Z,12.00
2022-12-24T03:15:37.522Z,12.00
2022-12-24T03:20:43.656Z,13.70
2022-12-24T03:25:46.767Z,11.50
2022-12-24T03:30:49.891Z,12.13
2022-12-24T03:35:53.070Z,11.33
2022-12-24T03:40:56.565Z,11.33
2022-12-24T03:45:59.617Z,14.60
2022-12-24T03:51:03.167Z,12.23
2022-12-24T03:56:06.546Z,11.67
2022-12-24T04:01:09.642Z,13.43
2022-12-24T04:06:14.935Z,15.97
2022-12-24T04:11:18.647Z,17.53
2022-12-24T04:16:21.570Z,14.60
2022-12-24T04:21:24.746Z,14.83
2022-12-24T04:26:28.465Z,17.97
2022-12-24T04:31:31.701Z,15.13
2022-12-24T04:36:34.967Z,14.87
2022-12-24T04:41:38.259Z,14.37
2022-12-24T04:46:42.688Z,13.53
2022-12-24T04:51:45.957Z,12.33
2022-12-24T04:56:49.114Z,11.20
2022-12-24T05:01:52.291Z,11.83
2022-12-24T05:06:55.429Z,11.87
2022-12-24T05:11:58.347Z,13.37
2022-12-24T05:17:01.674Z,17.63
2022-12-24T05:22:25.106Z,34.30
2022-12-24T05:27:28.545Z,37.50
2022-12-24T05:32:31.595Z,40.30
2022-12-24T05:37:34.585Z,48.87
2022-12-24T05:42:38.375Z,55.20
2022-12-24T05:47:43.450Z,42.23
2022-12-24T05:52:46.779Z,21.87
2022-12-24T05:57:50.095Z,24.80
2022-12-24T06:02:53.592Z,32.77
2022-12-24T06:07:57.116Z,42.57
2022-12-24T06:13:00.035Z,31.30
2022-12-24T06:18:03.564Z,29.30
2022-12-24T06:23:06.966Z,25.10
2022-12-24T06:28:10.579Z,21.73
2022-12-24T06:33:13.655Z,16.80
2022-12-24T06:38:16.723Z,28.40
2022-12-24T06:43:19.924Z,19.37
2022-12-24T06:48:23.110Z,19.37
2022-12-24T06:53:26.237Z,24.20
2022-12-24T06:58:29.170Z,16.80
2022-12-24T07:03:32.795Z,17.10
2022-12-24T07:08:36.665Z,15.47
2022-12-24T07:13:40.572Z,18.07
2022-12-24T07:18:43.798Z,23.43
2022-12-24T07:23:46.940Z,14.50
2022-12-24T07:28:50.273Z,15.40
2022-12-24T07:33:53.077Z,13.13
2022-12-24T07:38:57.132Z,11.97
2022-12-24T07:43:59.941Z,25.43
2022-12-24T07:49:02.995Z,22.73
2022-12-24T07:54:06.096Z,19.10
2022-12-24T07:59:11.301Z,26.70
2022-12-24T08:04:14.505Z,29.20
2022-12-24T08:09:17.528Z,22.93
2022-12-24T08:14:20.557Z,44.03
2022-12-24T08:19:23.666Z,23.47
2022-12-24T08:24:26.633Z,30.97
2022-12-24T08:29:29.826Z,27.33
2022-12-24T08:34:32.858Z,32.43
2022-12-24T08:39:36.013Z,32.00
2022-12-24T08:44:39.251Z,27.37
2022-12-24T08:49:42.390Z,19.73
2022-12-24T08:54:45.404Z,18.80
2022-12-24T08:59:48.469Z,24.67
2022-12-24T09:04:51.707Z,24.63
2022-12-24T09:09:54.716Z,25.07
2022-12-24T09:15:03.132Z,18.20
2022-12-24T09:20:08.016Z,18.87
2022-12-24T09:25:11.516Z,21.00
2022-12-24T09:30:14.964Z,20.87
2022-12-24T09:35:18.032Z,21.20
2022-12-24T09:40:28.336Z,21.53
2022-12-24T09:45:36.290Z,21.17
2022-12-24T09:50:42.838Z,20.70
2022-12-24T09:55:58.435Z,18.97
2022-12-24T10:01:01.862Z,20.43
2022-12-24T10:06:10.873Z,12.50
2022-12-24T10:11:44.060Z,10.77
2022-12-24T10:17:12.521Z,7.60
2022-12-24T10:22:24.278Z,4.17
2022-12-24T10:27:31.182Z,2.43
2022-12-24T10:32:36.110Z,1.97
2022-12-24T10:37:39.236Z,3.10
2022-12-24T10:42:51.100Z,3.13
2022-12-24T10:47:57.826Z,2.03
2022-12-24T10:53:13.207Z,2.43
2022-12-24T10:58:19.537Z,2.20
2022-12-24T11:03:25.788Z,4.20
2022-12-24T11:08:29.289Z,2.90
2022-12-24T11:13:38.445Z,4.57
2022-12-24T11:18:53.558Z,3.07
2022-12-24T11:24:28.076Z,1.87
2022-12-24T11:29:31.026Z,2.23
2022-12-24T11:34:34.792Z,1.93
2022-12-24T11:39:42.000Z,2.17
2022-12-24T11:44:49.474Z,2.27
2022-12-24T11:49:52.561Z,1.83
2022-12-24T11:55:16.670Z,1.73
2022-12-24T12:00:19.851Z,2.00
2022-12-24T12:05:30.285Z,2.50
2022-12-24T12:10:36.895Z,2.20
2022-12-24T12:15:43.633Z,2.40
2022-12-24T12:20:53.518Z,2.90
2022-12-24T12:25:59.933Z,3.50
2022-12-24T12:31:11.941Z,3.20
2022-12-24T12:36:23.821Z,3.27
2022-12-24T12:41:45.233Z,3.80
2022-12-24T12:46:57.552Z,7.23
2022-12-24T12:52:17.301Z,8.30
2022-12-24T12:57:22.914Z,7.57
2022-12-24T13:02:35.260Z,8.10
2022-12-24T13:08:07.632Z,12.40
2022-12-24T13:13:29.447Z,8.13
2022-12-24T13:18:58.997Z,7.27
2022-12-24T13:24:28.643Z,6.63
2022-12-24T13:29:41.886Z,6.83
2022-12-24T13:34:48.113Z,8.30
2022-12-24T13:40:06.646Z,8.60
2022-12-24T13:45:28.957Z,9.10
2022-12-24T13:50:37.350Z,10.67
2022-12-24T13:55:50.961Z,12.53
2022-12-24T14:01:15.952Z,12.03
2022-12-24T14:06:26.623Z,11.63
2022-12-24T14:11:34.637Z,11.70
2022-12-24T14:16:51.739Z,11.60
2022-12-24T14:22:18.085Z,9.80
2022-12-24T14:27:32.678Z,10.23
2022-12-24T14:32:37.644Z,9.23
2022-12-24T14:37:41.990Z,7.40
2022-12-24T14:43:19.030Z,13.23
2022-12-24T14:48:59.806Z,60.57
2022-12-24T14:54:18.093Z,9.17
2022-12-24T14:59:21.362Z,8.10
2022-12-24T15:04:24.291Z,8.07
2022-12-24T15:09:31.642Z,8.87
2022-12-24T15:14:42.325Z,4.80
2022-12-24T15:19:48.192Z,4.60
2022-12-24T15:24:51.571Z,4.37
2022-12-24T15:29:57.511Z,13.60
2022-12-24T15:35:00.501Z,5.23
2022-12-24T15:40:20.399Z,5.10
2022-12-24T15:45:29.560Z,4.70
2022-12-24T15:50:37.768Z,4.73
2022-12-24T15:55:42.040Z,3.90
2022-12-24T16:00:45.187Z,5.17
2022-12-24T16:06:02.917Z,5.33
2022-12-24T16:11:06.072Z,5.60
2022-12-24T16:16:11.999Z,5.27
2022-12-24T16:21:26.065Z,5.50
2022-12-24T16:26:29.211Z,5.23
2022-12-24T16:31:38.694Z,18.13
2022-12-24T16:36:45.876Z,5.53
2022-12-24T16:42:10.887Z,4.87
2022-12-24T16:47:21.859Z,5.00
2022-12-24T16:52:29.648Z,6.77
2022-12-24T16:57:35.826Z,33.33
2022-12-24T17:02:39.770Z,4.70
2022-12-24T17:07:43.962Z,4.20
2022-12-24T17:12:47.300Z,5.53
2022-12-24T17:17:50.161Z,6.83
2022-12-24T17:22:53.135Z,5.60
2022-12-24T17:27:56.205Z,9.53
2022-12-24T17:32:59.099Z,6.20
2022-12-24T17:38:01.864Z,6.80
2022-12-24T17:43:07.460Z,6.80
2022-12-24T17:48:10.741Z,8.33
2022-12-24T17:53:13.827Z,5.63
2022-12-24T17:58:17.055Z,6.20
2022-12-24T18:03:20.216Z,6.47
2022-12-24T18:08:23.232Z,6.67
2022-12-24T18:13:26.546Z,6.17
2022-12-24T18:18:29.466Z,7.07
2022-12-24T18:23:32.469Z,7.93
2022-12-24T18:28:35.564Z,9.53
2022-12-24T18:33:39.128Z,16.77
2022-12-24T18:38:42.067Z,16.63
2022-12-24T18:43:44.848Z,18.77
2022-12-24T18:48:48.299Z,18.27
2022-12-24T18:53:51.887Z,20.73
2022-12-24T18:58:56.671Z,20.70
2022-12-24T19:03:59.646Z,17.93
2022-12-24T19:09:03.256Z,17.43
2022-12-24T19:14:07.753Z,19.67
2022-12-24T19:19:12.320Z,34.73
2022-12-24T19:24:15.565Z,17.30
2022-12-24T19:29:18.556Z,21.47
2022-12-24T19:34:21.541Z,20.40
2022-12-24T19:39:31.611Z,20.70
2022-12-24T19:44:35.267Z,27.37
2022-12-24T19:49:38.207Z,19.17
2022-12-24T19:54:42.887Z,21.27
2022-12-24T19:59:45.956Z,16.67
2022-12-24T20:04:50.800Z,17.97
2022-12-24T20:09:53.962Z,20.93
2022-12-24T20:14:57.748Z,18.13
2022-12-24T20:20:00.987Z,17.90
2022-12-24T20:25:04.250Z,19.13
2022-12-24T20:30:07.915Z,16.13
2022-12-24T20:35:11.072Z,18.40
2022-12-24T20:40:14.173Z,22.77
2022-12-24T20:45:18.432Z,20.20
2022-12-24T20:50:23.789Z,24.77
2022-12-24T20:55:26.704Z,20.57
2022-12-24T21:00:29.907Z,17.40
2022-12-24T21:05:32.922Z,17.70
2022-12-24T21:10:36.397Z,14.30
2022-12-24T21:15:40.357Z,14.53
2022-12-24T21:20:44.009Z,23.20
2022-12-24T21:25:57.893Z,13.50
2022-12-24T21:31:01.182Z,14.10
2022-12-24T21:36:04.734Z,14.87
2022-12-24T21:41:10.454Z,14.77
2022-12-24T21:46:16.837Z,22.67
2022-12-24T21:51:20.396Z,20.63
2022-12-24T21:56:23.959Z,13.33
2022-12-24T22:01:27.093Z,13.30
2022-12-24T22:06:51.895Z,12.10
2022-12-24T22:11:55.187Z,9.10
2022-12-24T22:16:58.412Z,12.53
2022-12-24T22:22:01.508Z,13.87
2022-12-24T22:27:05.063Z,13.63
2022-12-24T22:32:08.061Z,12.23
2022-12-24T22:37:11.055Z,14.10
2022-12-24T22:42:14.063Z,13.53
2022-12-24T22:47:16.930Z,12.83
2022-12-24T22:52:20.000Z,13.50
2022-12-24T22:57:23.036Z,13.67
2022-12-24T23:02:28.695Z,14.57
2022-12-24T23:07:32.244Z,14.87
2022-12-24T23:12:54.079Z,16.30
2022-12-24T23:17:56.948Z,17.20
2022-12-24T23:23:00.051Z,14.40
2022-12-24T23:28:03.579Z,17.23
2022-12-24T23:33:06.699Z,17.93
2022-12-24T23:38:09.687Z,19.13
2022-12-24T23:43:13.363Z,17.77
2022-12-24T23:48:16.595Z,17.03
2022-12-24T23:53:20.132Z,17.63
2022-12-24T23:58:23.307Z,18.80
